createdAt,value
2023-01-27T00:01:07.569Z,3.57
2023-01-27T00:03:35.888Z,3.53
2023-01-27T00:06:04.858Z,3.49
2023-01-27T00:08:34.440Z,3.40
2023-01-27T00:11:20.052Z,3.50
2023-01-27T00:13:48.218Z,3.52
2023-01-27T00:16:16.631Z,3.61
2023-01-27T00:18:44.805Z,3.48
2023-01-27T00:21:41.784Z,3.49
2023-01-27T00:24:31.729Z,3.54
2023-01-27T00:27:00.117Z,3.68
2023-01-27T00:29:28.389Z,3.67
2023-01-27T00:32:13.806Z,3.41
2023-01-27T00:34:41.967Z,3.57
2023-01-27T00:37:10.582Z,3.50
2023-01-27T00:39:40.001Z,3.59
2023-01-27T00:42:08.153Z,3.66
2023-01-27T00:44:36.205Z,3.68
2023-01-27T00:47:04.659Z,3.65
2023-01-27T00:49:32.960Z,3.71
2023-01-27T00:52:01.005Z,3.78
2023-01-27T00:54:29.258Z,3.66
2023-01-27T00:56:58.658Z,3.68
2023-01-27T00:59:26.664Z,3.61
2023-01-27T01:01:55.006Z,3.57
2023-01-27T01:04:23.418Z,3.20
2023-01-27T01:06:51.433Z,3.04
2023-01-27T01:09:19.454Z,2.70
2023-01-27T01:11:47.525Z,2.75
2023-01-27T01:14:16.967Z,2.89
2023-01-27T01:16:45.040Z,2.91
2023-01-27T01:19:14.854Z,3.02
2023-01-27T01:21:42.884Z,3.01
2023-01-27T01:24:10.928Z,3.09
2023-01-27T01:26:39.132Z,3.33
2023-01-27T01:29:07.264Z,3.37
2023-01-27T01:31:36.750Z,3.57
2023-01-27T01:34:05.046Z,3.61
2023-01-27T01:36:33.421Z,3.65
2023-01-27T01:39:01.437Z,3.52
2023-01-27T01:41:29.899Z,3.53
2023-01-27T01:43:57.968Z,3.55
2023-01-27T01:46:26.029Z,3.58
2023-01-27T01:49:01.078Z,3.38
2023-01-27T01:51:32.268Z,3.35
2023-01-27T01:54:05.199Z,3.39
2023-01-27T01:56:38.609Z,3.38
2023-01-27T01:59:10.993Z,3.52
2023-01-27T02:01:39.317Z,3.48
2023-01-27T02:04:16.191Z,3.49
2023-01-27T02:06:50.070Z,3.58
2023-01-27T02:09:20.215Z,3.55
2023-01-27T02:11:48.295Z,3.53
2023-01-27T02:14:18.675Z,3.41
2023-01-27T02:16:48.103Z,3.46
2023-01-27T02:19:38.961Z,3.46
2023-01-27T02:22:12.401Z,3.53
2023-01-27T02:24:48.598Z,3.40
2023-01-27T02:27:18.132Z,3.33
2023-01-27T02:29:46.289Z,3.41
2023-01-27T02:32:24.583Z,3.40
2023-01-27T02:34:54.943Z,3.31
2023-01-27T02:37:23.375Z,3.14
2023-01-27T02:39:53.567Z,3.22
2023-01-27T02:42:24.217Z,3.26
2023-01-27T02:44:52.376Z,3.19
2023-01-27T02:47:21.082Z,3.24
2023-01-27T02:49:49.632Z,3.24
2023-01-27T02:52:17.713Z,3.08
2023-01-27T02:54:45.740Z,3.18
2023-01-27T02:57:13.804Z,3.21
2023-01-27T02:59:43.210Z,3.23
2023-01-27T03:02:14.847Z,3.26
2023-01-27T03:04:42.990Z,3.26
2023-01-27T03:07:11.168Z,3.33
2023-01-27T03:09:39.355Z,3.33
2023-01-27T03:12:22.804Z,3.38
2023-01-27T03:15:10.929Z,3.33
2023-01-27T03:17:57.216Z,3.29
2023-01-27T03:20:25.506Z,3.28
2023-01-27T03:22:53.797Z,3.17
2023-01-27T03:25:22.023Z,3.24
2023-01-27T03:27:50.088Z,3.19
2023-01-27T03:30:29.058Z,3.21
2023-01-27T03:32:58.533Z,3.18
2023-01-27T03:35:34.216Z,3.13
2023-01-27T03:38:20.277Z,3.12
2023-01-27T03:41:05.662Z,2.87
2023-01-27T03:43:51.094Z,2.67
2023-01-27T03:46:22.379Z,2.75
2023-01-27T03:48:52.676Z,2.74
2023-01-27T03:51:23.133Z,2.83
2023-01-27T03:53:52.200Z,2.79
2023-01-27T03:56:22.039Z,2.80
2023-01-27T03:58:51.479Z,2.79
2023-01-27T04:01:22.631Z,2.80
2023-01-27T04:04:09.055Z,2.70
2023-01-27T04:06:55.346Z,2.63
2023-01-27T04:09:25.289Z,2.68
2023-01-27T04:11:55.386Z,2.83
2023-01-27T04:14:25.683Z,2.79
2023-01-27T04:16:57.142Z,2.85
2023-01-27T04:19:25.905Z,2.93
2023-01-27T04:21:55.403Z,2.97
2023-01-27T04:24:26.373Z,2.91
2023-01-27T04:26:57.562Z,2.97
2023-01-27T04:29:27.340Z,2.87
2023-01-27T04:31:57.991Z,2.76
2023-01-27T04:34:26.702Z,2.78
2023-01-27T04:36:55.302Z,2.86
2023-01-27T04:39:23.787Z,3.00
2023-01-27T04:41:51.808Z,3.02
2023-01-27T04:44:21.352Z,2.98
2023-01-27T04:46:51.704Z,2.97
2023-01-27T04:49:21.383Z,3.01
2023-01-27T04:51:49.370Z,3.03
2023-01-27T04:54:17.386Z,3.06
2023-01-27T04:56:57.637Z,2.98
2023-01-27T04:59:25.652Z,2.81
2023-01-27T05:01:54.256Z,2.72
2023-01-27T05:04:24.267Z,2.86
2023-01-27T05:06:52.289Z,2.69
2023-01-27T05:09:20.421Z,2.78
2023-01-27T05:11:48.419Z,2.91
2023-01-27T05:14:16.421Z,2.82
2023-01-27T05:16:44.702Z,2.92
2023-01-27T05:19:13.096Z,2.99
2023-01-27T05:21:43.388Z,3.09
2023-01-27T05:24:12.336Z,3.05
2023-01-27T05:26:40.764Z,3.09
2023-01-27T05:29:08.744Z,3.12
2023-01-27T05:31:36.846Z,3.09
2023-01-27T05:34:04.891Z,3.18
2023-01-27T05:36:33.242Z,3.24
2023-01-27T05:39:02.902Z,3.30
2023-01-27T05:41:32.638Z,3.30
2023-01-27T05:44:00.905Z,3.35
2023-01-27T05:46:30.843Z,3.22
2023-01-27T05:49:01.073Z,3.23
2023-01-27T05:51:31.891Z,3.34
2023-01-27T05:54:00.474Z,3.37
2023-01-27T05:56:30.527Z,3.41
2023-01-27T05:58:59.467Z,3.37
2023-01-27T06:01:29.256Z,3.41
2023-01-27T06:03:57.917Z,3.43
2023-01-27T06:06:28.161Z,3.52
2023-01-27T06:08:56.154Z,3.47
2023-01-27T06:11:25.276Z,3.46
2023-01-27T06:13:55.428Z,3.44
2023-01-27T06:16:24.769Z,3.38
2023-01-27T06:18:52.892Z,3.37
2023-01-27T06:21:21.204Z,3.32
2023-01-27T06:23:49.790Z,3.27
2023-01-27T06:26:19.471Z,3.21
2023-01-27T06:28:47.787Z,3.25
2023-01-27T06:31:19.086Z,3.27
2023-01-27T06:33:47.233Z,3.01
2023-01-27T06:36:17.031Z,2.86
2023-01-27T06:38:45.867Z,3.00
2023-01-27T06:41:14.145Z,3.14
2023-01-27T06:43:42.234Z,3.26
2023-01-27T06:46:10.402Z,3.26
2023-01-27T06:48:39.817Z,3.21
2023-01-27T06:51:08.143Z,3.14
2023-01-27T06:53:37.532Z,3.18
2023-01-27T06:56:06.366Z,3.22
2023-01-27T06:58:34.648Z,3.19
2023-01-27T07:01:02.848Z,3.24
2023-01-27T07:03:31.097Z,3.12
2023-01-27T07:06:00.487Z,3.19
2023-01-27T07:08:28.509Z,3.21
2023-01-27T07:10:56.645Z,3.15
2023-01-27T07:13:24.646Z,3.22
2023-01-27T07:15:56.360Z,3.31
2023-01-27T07:18:25.117Z,3.33
2023-01-27T07:20:53.269Z,3.51
2023-01-27T07:23:22.681Z,3.54
2023-01-27T07:25:50.737Z,3.57
2023-01-27T07:28:18.749Z,3.52
2023-01-27T07:30:46.767Z,3.44
2023-01-27T07:33:15.452Z,3.44
2023-01-27T07:35:43.748Z,3.52
2023-01-27T07:38:12.120Z,3.44
2023-01-27T07:40:41.518Z,3.37
2023-01-27T07:43:10.907Z,3.39
2023-01-27T07:45:39.238Z,3.48
2023-01-27T07:48:08.904Z,3.33
2023-01-27T07:50:37.297Z,3.34
2023-01-27T07:53:06.450Z,3.41
2023-01-27T07:55:35.029Z,3.37
2023-01-27T07:58:04.602Z,3.45
2023-01-27T08:00:33.399Z,3.53
2023-01-27T08:03:02.936Z,3.50
2023-01-27T08:05:34.417Z,3.60
2023-01-27T08:08:04.068Z,3.71
2023-01-27T08:10:32.568Z,3.75
2023-01-27T08:13:00.810Z,3.79
2023-01-27T08:15:30.243Z,3.66
2023-01-27T08:17:59.086Z,3.51
2023-01-27T08:20:28.499Z,3.56
2023-01-27T08:22:57.100Z,3.69
2023-01-27T08:25:25.513Z,3.53
2023-01-27T08:27:55.089Z,3.64
2023-01-27T08:30:23.924Z,3.63
2023-01-27T08:32:53.774Z,3.73
2023-01-27T08:35:21.796Z,3.89
2023-01-27T08:37:49.811Z,3.97
2023-01-27T08:40:18.707Z,4.10
2023-01-27T08:42:46.975Z,4.17
2023-01-27T08:45:14.988Z,4.24
2023-01-27T08:47:42.981Z,4.31
2023-01-27T08:50:13.487Z,4.28
2023-01-27T08:52:41.873Z,4.24
2023-01-27T08:55:10.281Z,4.33
2023-01-27T08:57:38.452Z,4.40
2023-01-27T09:00:13.366Z,4.42
2023-01-27T09:02:41.830Z,4.54
2023-01-27T09:05:09.943Z,4.58
2023-01-27T09:07:39.394Z,4.68
2023-01-27T09:10:14.446Z,4.80
2023-01-27T09:12:43.680Z,4.86
2023-01-27T09:15:12.704Z,4.66
2023-01-27T09:17:40.939Z,4.47
2023-01-27T09:20:10.685Z,4.35
2023-01-27T09:22:41.725Z,4.52
2023-01-27T09:25:13.748Z,4.76
2023-01-27T09:27:41.759Z,4.83
2023-01-27T09:30:11.718Z,4.84
2023-01-27T09:32:40.370Z,5.10
2023-01-27T09:35:09.385Z,4.98
2023-01-27T09:37:44.365Z,5.22
2023-01-27T09:40:22.980Z,5.22
2023-01-27T09:43:03.721Z,5.46
2023-01-27T09:45:52.617Z,5.68
2023-01-27T09:48:34.798Z,5.51
2023-01-27T09:51:10.777Z,5.32
2023-01-27T09:54:16.390Z,5.50
2023-01-27T09:57:04.331Z,5.38
2023-01-27T09:59:48.124Z,5.57
2023-01-27T10:02:32.986Z,5.72
2023-01-27T10:05:29.813Z,5.74
2023-01-27T10:08:27.267Z,5.76
2023-01-27T10:11:09.746Z,5.47
2023-01-27T10:13:47.856Z,5.43
2023-01-27T10:16:31.167Z,4.94
2023-01-27T10:19:17.150Z,4.81
2023-01-27T10:21:53.817Z,4.79
2023-01-27T10:24:38.577Z,4.60
2023-01-27T10:27:16.924Z,4.74
2023-01-27T10:29:47.537Z,4.90
2023-01-27T10:32:27.796Z,4.84
2023-01-27T10:35:09.291Z,5.21
2023-01-27T10:37:46.616Z,5.45
2023-01-27T10:40:22.143Z,5.54
2023-01-27T10:43:02.174Z,5.69
2023-01-27T10:45:37.783Z,5.83
2023-01-27T10:48:22.506Z,5.96
2023-01-27T10:50:56.467Z,5.93
2023-01-27T10:53:30.342Z,5.88
2023-01-27T10:56:04.285Z,5.78
2023-01-27T10:58:45.581Z,5.74
2023-01-27T11:01:21.430Z,5.59
2023-01-27T11:03:55.863Z,5.26
2023-01-27T11:06:26.500Z,4.93
2023-01-27T11:09:03.690Z,5.13
2023-01-27T11:11:47.401Z,5.08
2023-01-27T11:14:25.079Z,5.18
2023-01-27T11:16:55.224Z,5.20
2023-01-27T11:19:41.750Z,5.29
2023-01-27T11:22:22.607Z,5.16
2023-01-27T11:24:58.767Z,5.13
2023-01-27T11:27:41.063Z,4.95
2023-01-27T11:30:17.171Z,5.00
2023-01-27T11:32:53.834Z,4.91
2023-01-27T11:35:23.898Z,4.84
2023-01-27T11:37:58.211Z,4.99
2023-01-27T11:40:32.603Z,5.17
2023-01-27T11:43:01.927Z,5.35
2023-01-27T11:45:35.183Z,5.39
2023-01-27T11:48:07.132Z,5.28
2023-01-27T11:50:37.324Z,5.31
2023-01-27T11:53:14.070Z,5.36
2023-01-27T11:55:45.301Z,5.33
2023-01-27T11:58:20.670Z,5.36
2023-01-27T12:00:55.662Z,5.33
2023-01-27T12:03:29.310Z,5.62
2023-01-27T12:06:05.851Z,5.80
2023-01-27T12:08:42.740Z,5.65
2023-01-27T12:11:34.600Z,5.31
2023-01-27T12:14:05.373Z,5.12
2023-01-27T12:16:47.656Z,5.07
2023-01-27T12:19:26.430Z,5.24
2023-01-27T12:21:59.319Z,5.20
2023-01-27T12:24:30.999Z,5.33
2023-01-27T12:27:00.391Z,5.24
2023-01-27T12:29:32.968Z,5.15
2023-01-27T12:32:02.633Z,5.22
2023-01-27T12:34:34.587Z,5.11
2023-01-27T12:37:05.508Z,5.10
2023-01-27T12:39:50.319Z,4.95
2023-01-27T12:42:39.989Z,4.75
2023-01-27T12:45:26.420Z,4.70
2023-01-27T12:48:02.337Z,4.43
2023-01-27T12:50:32.510Z,4.59
2023-01-27T12:53:13.935Z,4.55
2023-01-27T12:55:45.492Z,4.57
2023-01-27T12:58:32.556Z,4.78
2023-01-27T13:01:04.430Z,4.72
2023-01-27T13:03:40.683Z,5.00
2023-01-27T13:06:09.361Z,5.13
2023-01-27T13:08:42.584Z,5.20
2023-01-27T13:11:11.166Z,5.21
2023-01-27T13:13:48.476Z,5.07
2023-01-27T13:16:19.309Z,4.98
2023-01-27T13:18:56.511Z,5.14
2023-01-27T13:21:28.732Z,5.30
2023-01-27T13:23:57.632Z,5.54
2023-01-27T13:26:29.845Z,5.83
2023-01-27T13:29:03.706Z,5.95
2023-01-27T13:31:45.137Z,5.98
2023-01-27T13:34:24.695Z,5.62
2023-01-27T13:36:57.909Z,5.46
2023-01-27T13:39:44.416Z,5.60
2023-01-27T13:42:20.083Z,5.65
2023-01-27T13:44:56.453Z,5.71
2023-01-27T13:47:27.769Z,5.67
2023-01-27T13:50:01.845Z,5.87
2023-01-27T13:52:30.131Z,6.01
2023-01-27T13:54:59.019Z,5.82
2023-01-27T13:57:47.257Z,5.84
2023-01-27T14:00:21.551Z,5.93
2023-01-27T14:03:26.798Z,6.11
2023-01-27T14:06:08.915Z,5.89
2023-01-27T14:08:49.589Z,5.81
2023-01-27T14:11:29.368Z,5.80
2023-01-27T14:14:22.864Z,5.69
2023-01-27T14:17:26.544Z,5.81
2023-01-27T14:20:16.005Z,5.86
2023-01-27T14:22:54.900Z,5.73
2023-01-27T14:25:33.857Z,5.60
2023-01-27T14:28:14.348Z,5.73
2023-01-27T14:30:45.560Z,5.59
2023-01-27T14:33:21.620Z,5.56
2023-01-27T14:35:57.883Z,5.51
2023-01-27T14:38:33.543Z,5.51
2023-01-27T14:41:14.678Z,5.55
2023-01-27T14:43:49.255Z,5.57
2023-01-27T14:46:32.451Z,5.63
2023-01-27T14:49:09.816Z,5.70
2023-01-27T14:51:43.193Z,5.56
2023-01-27T14:54:59.036Z,5.40
2023-01-27T14:57:39.165Z,5.62
2023-01-27T15:00:27.108Z,5.81
2023-01-27T15:03:15.425Z,5.84
2023-01-27T15:05:51.979Z,5.97
2023-01-27T15:08:27.943Z,5.83
2023-01-27T15:11:10.972Z,5.68
2023-01-27T15:14:02.633Z,5.86
2023-01-27T15:16:56.820Z,5.89
2023-01-27T15:19:42.002Z,5.80
2023-01-27T15:22:48.571Z,5.73
2023-01-27T15:25:33.384Z,5.67
2023-01-27T15:28:03.940Z,5.69
2023-01-27T15:30:34.729Z,5.58
2023-01-27T15:33:02.952Z,5.56
2023-01-27T15:35:41.731Z,5.57
2023-01-27T15:38:31.462Z,5.65
2023-01-27T15:41:13.026Z,5.46
2023-01-27T15:44:13.650Z,5.42
2023-01-27T15:46:45.345Z,5.44
2023-01-27T15:49:21.383Z,5.51
2023-01-27T15:51:53.188Z,5.58
2023-01-27T15:54:27.093Z,5.60
2023-01-27T15:56:56.534Z,5.61
2023-01-27T15:59:30.570Z,5.58
2023-01-27T16:02:06.195Z,5.55
2023-01-27T16:04:37.898Z,5.54
2023-01-27T16:07:07.843Z,5.48
2023-01-27T16:09:41.080Z,5.46
2023-01-27T16:12:32.132Z,5.51
2023-01-27T16:15:32.016Z,5.45
2023-01-27T16:18:16.632Z,5.42
2023-01-27T16:20:51.342Z,5.40
2023-01-27T16:23:38.323Z,5.28
2023-01-27T16:26:19.191Z,5.28
2023-01-27T16:28:50.737Z,5.27
2023-01-27T16:31:24.286Z,5.11
2023-01-27T16:33:58.253Z,5.13
2023-01-27T16:36:30.588Z,5.10
2023-01-27T16:39:05.020Z,5.19
2023-01-27T16:41:39.538Z,5.09
2023-01-27T16:44:18.196Z,5.02
2023-01-27T16:46:51.072Z,5.00
2023-01-27T16:49:23.857Z,5.01
2023-01-27T16:51:56.296Z,5.13
2023-01-27T16:54:30.694Z,5.18
2023-01-27T16:56:59.409Z,5.16
2023-01-27T16:59:29.432Z,5.15
2023-01-27T17:02:01.817Z,5.14
2023-01-27T17:04:32.957Z,5.06
2023-01-27T17:07:09.816Z,5.07
2023-01-27T17:09:42.359Z,5.14
2023-01-27T17:12:29.379Z,5.01
2023-01-27T17:14:58.754Z,5.04
2023-01-27T17:17:30.618Z,4.93
2023-01-27T17:20:03.817Z,4.70
2023-01-27T17:22:38.474Z,4.66
2023-01-27T17:25:15.252Z,4.67
2023-01-27T17:27:45.524Z,4.62
2023-01-27T17:30:18.426Z,4.68
2023-01-27T17:32:50.979Z,4.80
2023-01-27T17:35:24.181Z,4.85
2023-01-27T17:37:52.765Z,4.83
2023-01-27T17:40:24.268Z,4.74
2023-01-27T17:42:52.342Z,4.65
2023-01-27T17:45:29.011Z,4.70
2023-01-27T17:48:00.967Z,4.76
2023-01-27T17:50:35.187Z,4.92
2023-01-27T17:53:09.383Z,4.95
2023-01-27T17:55:37.733Z,4.95
2023-01-27T17:58:07.645Z,4.95
2023-01-27T18:00:40.232Z,4.71
2023-01-27T18:03:18.300Z,4.77
2023-01-27T18:05:50.096Z,4.79
2023-01-27T18:08:19.035Z,4.62
2023-01-27T18:10:48.012Z,4.44
2023-01-27T18:13:37.009Z,4.36
2023-01-27T18:16:14.874Z,4.57
2023-01-27T18:18:44.839Z,4.69
2023-01-27T18:21:17.863Z,4.73
2023-01-27T18:23:47.983Z,4.74
2023-01-27T18:26:20.773Z,4.67
2023-01-27T18:28:53.132Z,4.62
2023-01-27T18:31:24.311Z,4.63
2023-01-27T18:34:02.195Z,4.67
2023-01-27T18:36:35.483Z,4.59
2023-01-27T18:39:05.673Z,4.67
2023-01-27T18:41:37.595Z,4.72
2023-01-27T18:44:12.088Z,4.77
2023-01-27T18:46:40.156Z,4.74
2023-01-27T18:49:11.849Z,4.82
2023-01-27T18:51:39.955Z,4.80
2023-01-27T18:54:12.244Z,4.73
2023-01-27T18:56:40.290Z,4.62
2023-01-27T18:59:13.450Z,4.58
2023-01-27T19:01:41.497Z,4.56
2023-01-27T19:04:12.996Z,4.48
2023-01-27T19:06:41.071Z,4.28
2023-01-27T19:09:10.625Z,4.29
2023-01-27T19:11:38.904Z,4.19
2023-01-27T19:14:06.946Z,4.26
2023-01-27T19:16:35.690Z,4.26
2023-01-27T19:19:03.980Z,4.14
2023-01-27T19:21:33.318Z,4.22
2023-01-27T19:24:01.371Z,4.34
2023-01-27T19:26:30.360Z,4.47
2023-01-27T19:28:59.187Z,4.53
2023-01-27T19:31:27.590Z,4.53
2023-01-27T19:33:57.759Z,4.57
2023-01-27T19:36:30.528Z,4.63
2023-01-27T19:39:07.667Z,4.60
2023-01-27T19:41:35.925Z,4.56
2023-01-27T19:44:04.015Z,4.43
2023-01-27T19:46:34.113Z,4.51
2023-01-27T19:49:02.275Z,4.42
2023-01-27T19:51:30.265Z,4.41
2023-01-27T19:53:58.589Z,4.21
2023-01-27T19:56:32.789Z,4.12
2023-01-27T19:59:00.924Z,4.29
2023-01-27T20:01:29.131Z,4.31
2023-01-27T20:03:57.198Z,4.34
2023-01-27T20:06:28.533Z,4.09
2023-01-27T20:08:59.821Z,4.25
2023-01-27T20:11:34.233Z,4.20
2023-01-27T20:14:05.484Z,4.09
2023-01-27T20:16:34.621Z,4.21
2023-01-27T20:19:02.824Z,4.35
2023-01-27T20:21:33.280Z,4.47
2023-01-27T20:24:02.154Z,4.57
2023-01-27T20:26:32.517Z,4.61
2023-01-27T20:29:01.096Z,4.68
2023-01-27T20:31:29.256Z,4.75
2023-01-27T20:34:00.461Z,4.80
2023-01-27T20:36:28.866Z,4.54
2023-01-27T20:38:57.487Z,4.55
2023-01-27T20:41:26.148Z,4.65
2023-01-27T20:44:00.578Z,4.67
2023-01-27T20:46:29.789Z,4.63
2023-01-27T20:48:59.193Z,4.52
2023-01-27T20:51:27.378Z,4.36
2023-01-27T20:53:55.496Z,4.40
2023-01-27T20:56:24.887Z,4.43
2023-01-27T20:58:54.443Z,4.45
2023-01-27T21:01:24.999Z,4.36
2023-01-27T21:03:53.195Z,4.16
2023-01-27T21:06:21.864Z,4.04
2023-01-27T21:08:50.396Z,4.02
2023-01-27T21:11:21.362Z,4.22
2023-01-27T21:13:50.189Z,4.34
2023-01-27T21:16:18.217Z,4.43
2023-01-27T21:18:47.685Z,4.52
2023-01-27T21:21:23.399Z,4.61
2023-01-27T21:23:51.583Z,4.60
2023-01-27T21:26:19.617Z,4.38
2023-01-27T21:28:47.776Z,4.03
2023-01-27T21:31:18.386Z,4.28
2023-01-27T21:33:48.452Z,4.47
2023-01-27T21:36:16.455Z,4.51
2023-01-27T21:38:44.814Z,4.00
2023-01-27T21:41:35.387Z,4.07
2023-01-27T21:44:21.573Z,4.21
2023-01-27T21:46:49.716Z,4.32
2023-01-27T21:49:19.112Z,4.35
2023-01-27T21:51:49.911Z,4.40
2023-01-27T21:54:18.233Z,4.46
2023-01-27T21:56:46.258Z,4.56
2023-01-27T21:59:14.249Z,4.54
2023-01-27T22:01:42.237Z,4.46
2023-01-27T22:04:10.479Z,4.48
2023-01-27T22:06:39.920Z,4.34
2023-01-27T22:09:08.130Z,4.33
2023-01-27T22:11:36.116Z,4.29
2023-01-27T22:14:04.100Z,4.36
2023-01-27T22:16:32.130Z,4.48
2023-01-27T22:19:00.171Z,4.41
2023-01-27T22:21:28.133Z,4.29
2023-01-27T22:24:00.057Z,4.42
2023-01-27T22:26:28.197Z,4.49
2023-01-27T22:28:56.165Z,4.57
2023-01-27T22:31:24.324Z,4.14
2023-01-27T22:33:52.366Z,4.12
2023-01-27T22:36:22.188Z,4.29
2023-01-27T22:38:50.463Z,4.47
2023-01-27T22:41:19.940Z,4.41
2023-01-27T22:43:51.184Z,4.23
2023-01-27T22:46:19.695Z,4.03
2023-01-27T22:48:49.615Z,4.16
2023-01-27T22:51:18.097Z,4.39
2023-01-27T22:53:47.286Z,4.47
2023-01-27T22:56:15.281Z,4.55
2023-01-27T22:58:44.641Z,4.65
2023-01-27T23:01:12.861Z,4.34
2023-01-27T23:03:40.872Z,4.27
2023-01-27T23:06:10.157Z,4.51
2023-01-27T23:08:38.347Z,4.53
2023-01-27T23:11:07.589Z,4.59
2023-01-27T23:13:36.548Z,4.59
2023-01-27T23:16:06.750Z,4.42
2023-01-27T23:18:34.844Z,4.35
2023-01-27T23:21:08.361Z,4.31
2023-01-27T23:23:36.977Z,4.24
2023-01-27T23:26:08.155Z,4.42
2023-01-27T23:28:38.544Z,4.53
2023-01-27T23:31:11.029Z,4.49
2023-01-27T23:33:40.890Z,4.06
2023-01-27T23:36:10.969Z,3.93
2023-01-27T23:38:39.299Z,4.09
2023-01-27T23:41:12.743Z,4.24
2023-01-27T23:43:40.910Z,4.32
2023-01-27T23:46:11.443Z,4.24
2023-01-27T23:48:39.710Z,3.87
2023-01-27T23:51:09.037Z,4.02
2023-01-27T23:53:37.404Z,4.27
2023-01-27T23:56:06.433Z,4.29
2023-01-27T23:58:34.624Z,4.37
